createdAt,value
2017-08-30T00:01:27.246Z,29.90
2017-08-30T00:03:57.831Z,29.90
2017-08-30T00:06:30.251Z,29.43
2017-08-30T00:09:00.730Z,29.85
2017-08-30T00:11:30.732Z,29.71
2017-08-30T00:14:00.881Z,29.79
2017-08-30T00:16:31.290Z,29.77
2017-08-30T00:19:01.469Z,29.75
2017-08-30T00:21:32.410Z,29.62
2017-08-30T00:24:02.635Z,29.48
2017-08-30T00:26:33.462Z,29.69
2017-08-30T00:29:04.443Z,29.68
2017-08-30T00:31:34.695Z,29.66
2017-08-30T00:34:05.091Z,29.66
2017-08-30T00:36:35.287Z,29.55
2017-08-30T00:39:06.775Z,29.64
2017-08-30T00:41:37.658Z,29.63
2017-08-30T00:44:08.173Z,29.62
2017-08-30T00:46:38.376Z,29.63
2017-08-30T00:49:08.440Z,29.62
2017-08-30T00:51:38.611Z,29.63
2017-08-30T00:54:08.796Z,29.64
2017-08-30T00:56:39.445Z,29.65
2017-08-30T00:59:09.740Z,29.66
2017-08-30T01:01:40.622Z,29.54
2017-08-30T01:04:11.039Z,29.67
2017-08-30T01:06:40.816Z,29.67
2017-08-30T01:09:10.822Z,29.69
2017-08-30T01:11:41.404Z,29.70
2017-08-30T01:14:11.727Z,29.70
2017-08-30T01:16:42.450Z,29.70
2017-08-30T01:19:13.308Z,29.69
2017-08-30T01:21:43.420Z,29.68
2017-08-30T01:24:14.655Z,29.69
2017-08-30T01:26:47.478Z,29.70
2017-08-30T01:29:18.759Z,29.67
2017-08-30T01:31:49.171Z,29.37
2017-08-30T01:34:19.303Z,29.69
2017-08-30T01:36:49.502Z,29.70
2017-08-30T01:39:19.631Z,29.71
2017-08-30T01:41:51.731Z,29.71
2017-08-30T01:44:23.550Z,29.70
2017-08-30T01:46:53.799Z,29.70
2017-08-30T01:49:24.289Z,29.71
2017-08-30T01:51:54.641Z,29.73
2017-08-30T01:54:25.091Z,29.71
2017-08-30T01:56:55.965Z,29.71
2017-08-30T01:59:26.343Z,29.70
2017-08-30T02:01:58.546Z,29.69
2017-08-30T02:04:28.583Z,29.68
2017-08-30T02:06:58.802Z,29.40
2017-08-30T02:09:29.740Z,29.58
2017-08-30T02:11:59.742Z,29.68
2017-08-30T02:14:30.094Z,29.68
2017-08-30T02:16:59.951Z,29.68
2017-08-30T02:19:29.803Z,29.68
2017-08-30T02:22:00.143Z,29.67
2017-08-30T02:24:29.869Z,29.72
2017-08-30T02:26:59.842Z,29.70
2017-08-30T02:29:30.251Z,29.71
2017-08-30T02:32:00.540Z,29.69
2017-08-30T02:34:30.231Z,29.69
2017-08-30T02:37:00.316Z,29.58
2017-08-30T02:39:32.500Z,29.67
2017-08-30T02:42:03.139Z,29.67
2017-08-30T02:44:32.802Z,29.66
2017-08-30T02:47:03.055Z,29.66
2017-08-30T02:49:32.784Z,29.64
2017-08-30T02:52:02.457Z,29.65
2017-08-30T02:54:32.962Z,29.65
2017-08-30T02:57:02.880Z,29.66
2017-08-30T02:59:32.946Z,29.66
2017-08-30T03:02:03.681Z,29.65
2017-08-30T03:04:34.116Z,29.65
2017-08-30T03:07:04.132Z,29.64
2017-08-30T03:09:34.497Z,29.63
2017-08-30T03:12:04.566Z,29.62
2017-08-30T03:14:34.477Z,29.49
2017-08-30T03:17:04.680Z,29.63
2017-08-30T03:19:34.894Z,29.62
2017-08-30T03:22:04.962Z,29.63
2017-08-30T03:24:34.730Z,29.62
2017-08-30T03:27:04.763Z,29.62
2017-08-30T03:29:35.470Z,29.60
2017-08-30T03:32:05.261Z,29.52
2017-08-30T03:34:35.512Z,29.61
2017-08-30T03:37:06.063Z,29.61
2017-08-30T03:39:36.097Z,29.62
2017-08-30T03:42:06.183Z,29.63
2017-08-30T03:44:36.444Z,29.57
2017-08-30T03:47:06.419Z,29.67
2017-08-30T03:49:36.320Z,29.67
2017-08-30T03:52:06.268Z,29.65
2017-08-30T03:54:36.424Z,29.53
2017-08-30T03:57:06.533Z,29.50
2017-08-30T03:59:36.623Z,29.61
2017-08-30T04:02:06.508Z,29.53
2017-08-30T04:04:37.114Z,29.63
2017-08-30T04:07:07.126Z,29.62
2017-08-30T04:09:37.310Z,29.60
2017-08-30T04:12:07.702Z,29.59
2017-08-30T04:14:37.581Z,29.58
2017-08-30T04:17:08.274Z,29.57
2017-08-30T04:19:38.724Z,29.58
2017-08-30T04:22:08.998Z,29.50
2017-08-30T04:24:39.044Z,29.59
2017-08-30T04:27:09.605Z,29.59
2017-08-30T04:29:39.530Z,29.58
2017-08-30T04:32:10.398Z,29.58
2017-08-30T04:34:41.072Z,29.56
2017-08-30T04:37:11.295Z,29.56
2017-08-30T04:39:42.274Z,29.56
2017-08-30T04:42:12.370Z,29.44
2017-08-30T04:44:42.383Z,29.56
2017-08-30T04:47:12.730Z,29.56
2017-08-30T04:49:44.646Z,29.56
2017-08-30T04:52:17.765Z,29.56
2017-08-30T04:54:49.114Z,29.56
2017-08-30T04:57:18.767Z,29.19
2017-08-30T04:59:51.532Z,29.39
2017-08-30T05:02:21.895Z,29.55
2017-08-30T05:04:52.653Z,29.08
2017-08-30T05:07:23.391Z,29.54
2017-08-30T05:09:53.972Z,29.58
2017-08-30T05:12:24.561Z,29.57
2017-08-30T05:14:54.563Z,29.57
2017-08-30T05:17:24.646Z,29.14
2017-08-30T05:19:54.351Z,29.59
2017-08-30T05:22:24.517Z,29.58
2017-08-30T05:24:54.435Z,29.37
2017-08-30T05:27:24.599Z,29.57
2017-08-30T05:29:54.897Z,29.21
2017-08-30T05:32:25.176Z,29.58
2017-08-30T05:34:56.849Z,29.39
2017-08-30T05:37:28.291Z,29.57
2017-08-30T05:39:58.914Z,29.57
2017-08-30T05:42:29.257Z,29.57
2017-08-30T05:44:59.321Z,29.57
2017-08-30T05:47:29.519Z,29.58
2017-08-30T05:50:03.492Z,29.61
2017-08-30T05:52:38.225Z,29.63
2017-08-30T05:55:10.132Z,29.63
2017-08-30T05:57:49.980Z,29.64
2017-08-30T06:00:20.646Z,29.28
2017-08-30T06:02:51.167Z,29.66
2017-08-30T06:05:21.604Z,29.64
2017-08-30T06:07:51.514Z,29.64
2017-08-30T06:10:22.027Z,29.64
2017-08-30T06:12:51.865Z,29.56
2017-08-30T06:15:22.593Z,29.67
2017-08-30T06:17:52.825Z,29.68
2017-08-30T06:20:22.666Z,29.68
2017-08-30T06:22:52.800Z,29.59
2017-08-30T06:25:24.289Z,29.70
2017-08-30T06:27:54.675Z,29.72
2017-08-30T06:30:25.095Z,29.72
2017-08-30T06:32:55.618Z,29.71
2017-08-30T06:35:26.266Z,29.73
2017-08-30T06:37:57.080Z,29.52
2017-08-30T06:40:28.674Z,29.73
2017-08-30T06:43:05.090Z,29.73
2017-08-30T06:45:36.437Z,29.73
2017-08-30T06:48:06.387Z,29.34
2017-08-30T06:50:39.311Z,29.56
2017-08-30T06:53:09.305Z,29.76
2017-08-30T06:55:39.137Z,29.69
2017-08-30T06:58:10.196Z,29.79
2017-08-30T07:00:40.821Z,29.80
2017-08-30T07:03:12.539Z,29.81
2017-08-30T07:05:57.567Z,29.84
2017-08-30T07:08:36.262Z,29.84
2017-08-30T07:11:06.620Z,29.74
2017-08-30T07:13:36.549Z,29.83
2017-08-30T07:16:06.508Z,29.82
2017-08-30T07:18:36.794Z,29.82
2017-08-30T07:21:08.135Z,29.82
2017-08-30T07:23:37.767Z,29.74
2017-08-30T07:26:08.326Z,29.83
2017-08-30T07:28:38.365Z,29.84
2017-08-30T07:31:11.790Z,29.50
2017-08-30T07:33:49.029Z,29.78
2017-08-30T07:36:26.725Z,29.87
2017-08-30T07:38:59.363Z,29.85
2017-08-30T07:41:29.606Z,29.85
2017-08-30T07:44:00.567Z,29.85
2017-08-30T07:46:30.648Z,29.85
2017-08-30T07:49:01.334Z,29.87
2017-08-30T07:51:32.878Z,29.61
2017-08-30T07:54:05.211Z,29.52
2017-08-30T07:56:36.539Z,29.90
2017-08-30T07:59:07.279Z,29.80
2017-08-30T08:01:40.006Z,29.43
2017-08-30T08:04:10.378Z,29.92
2017-08-30T08:06:41.131Z,29.92
2017-08-30T08:09:16.973Z,29.92
2017-08-30T08:11:48.241Z,29.30
2017-08-30T08:14:18.867Z,29.95
2017-08-30T08:16:53.149Z,29.52
2017-08-30T08:19:23.587Z,29.96
2017-08-30T08:21:55.499Z,29.76
2017-08-30T08:24:27.545Z,29.86
2017-08-30T08:26:58.195Z,29.97
2017-08-30T08:29:27.984Z,29.98
2017-08-30T08:31:57.906Z,29.99
2017-08-30T08:34:29.281Z,29.71
2017-08-30T08:37:00.722Z,29.98
2017-08-30T08:39:32.460Z,29.99
2017-08-30T08:42:04.144Z,29.98
2017-08-30T08:44:34.429Z,29.99
2017-08-30T08:47:04.234Z,29.99
2017-08-30T08:49:34.501Z,29.97
2017-08-30T08:52:05.116Z,29.70
2017-08-30T08:54:38.554Z,29.67
2017-08-30T08:57:09.508Z,29.97
2017-08-30T08:59:40.142Z,30.06
2017-08-30T09:02:11.909Z,30.06
2017-08-30T09:04:41.970Z,29.90
2017-08-30T09:07:11.883Z,30.07
2017-08-30T09:09:42.163Z,30.08
2017-08-30T09:12:12.342Z,30.10
2017-08-30T09:14:42.128Z,30.10
2017-08-30T09:17:11.982Z,30.11
2017-08-30T09:19:41.988Z,30.11
2017-08-30T09:22:12.251Z,30.05
2017-08-30T09:24:41.975Z,30.14
2017-08-30T09:27:12.056Z,30.07
2017-08-30T09:29:41.696Z,30.10
2017-08-30T09:32:12.240Z,30.08
2017-08-30T09:34:42.242Z,30.09
2017-08-30T09:37:14.411Z,30.03
2017-08-30T09:39:44.936Z,30.12
2017-08-30T09:42:15.861Z,30.23
2017-08-30T09:44:49.583Z,30.08
2017-08-30T09:47:20.405Z,30.26
2017-08-30T09:49:50.584Z,29.98
2017-08-30T09:52:20.267Z,30.25
2017-08-30T09:54:50.230Z,30.17
2017-08-30T09:57:19.968Z,30.26
2017-08-30T09:59:49.915Z,30.19
2017-08-30T10:02:20.050Z,30.28
2017-08-30T10:04:49.868Z,30.21
2017-08-30T10:07:20.918Z,30.30
2017-08-30T10:09:50.925Z,30.32
2017-08-30T10:12:20.844Z,30.33
2017-08-30T10:14:50.709Z,30.27
2017-08-30T10:17:21.039Z,30.35
2017-08-30T10:19:50.753Z,30.19
2017-08-30T10:22:21.473Z,30.37
2017-08-30T10:24:51.488Z,30.39
2017-08-30T10:27:21.615Z,30.32
2017-08-30T10:29:52.727Z,30.27
2017-08-30T10:32:23.494Z,30.01
2017-08-30T10:34:53.988Z,30.51
2017-08-30T10:37:23.905Z,30.52
2017-08-30T10:39:53.748Z,30.52
2017-08-30T10:42:23.786Z,30.51
2017-08-30T10:44:53.528Z,30.52
2017-08-30T10:47:23.267Z,30.52
2017-08-30T10:49:53.300Z,30.53
2017-08-30T10:52:23.086Z,30.54
2017-08-30T10:54:56.367Z,30.35
2017-08-30T10:57:26.762Z,30.54
2017-08-30T10:59:56.703Z,30.56
2017-08-30T11:02:33.046Z,30.56
2017-08-30T11:05:03.074Z,30.58
2017-08-30T11:07:33.346Z,30.60
2017-08-30T11:10:06.358Z,30.60
2017-08-30T11:12:47.278Z,30.60
2017-08-30T11:15:17.900Z,30.61
2017-08-30T11:17:50.476Z,30.27
2017-08-30T11:20:21.195Z,30.64
2017-08-30T11:22:50.995Z,30.66
2017-08-30T11:25:21.138Z,30.57
2017-08-30T11:27:51.365Z,30.47
2017-08-30T11:30:21.149Z,30.68
2017-08-30T11:32:51.421Z,30.52
2017-08-30T11:35:21.031Z,30.52
2017-08-30T11:37:51.051Z,30.71
2017-08-30T11:40:21.016Z,30.64
2017-08-30T11:42:50.866Z,30.66
2017-08-30T11:45:20.504Z,30.75
2017-08-30T11:47:50.860Z,30.77
2017-08-30T11:50:20.745Z,30.78
2017-08-30T11:52:50.479Z,30.79
2017-08-30T11:55:20.757Z,30.61
2017-08-30T11:57:50.538Z,30.73
2017-08-30T12:00:20.324Z,30.74
2017-08-30T12:02:50.471Z,30.68
2017-08-30T12:05:20.182Z,30.85
2017-08-30T12:07:49.822Z,30.88
2017-08-30T12:10:25.548Z,30.89
2017-08-30T12:12:56.158Z,30.90
2017-08-30T12:15:26.386Z,30.92
2017-08-30T12:17:56.128Z,30.94
2017-08-30T12:20:25.925Z,30.96
2017-08-30T12:22:58.899Z,30.97
2017-08-30T12:25:28.898Z,30.99
2017-08-30T12:27:58.602Z,31.00
2017-08-30T12:30:28.709Z,31.01
2017-08-30T12:32:58.424Z,31.01
2017-08-30T12:35:28.366Z,31.03
2017-08-30T12:38:02.635Z,31.03
2017-08-30T12:40:34.511Z,31.04
2017-08-30T12:43:04.494Z,31.07
2017-08-30T12:45:34.945Z,31.09
2017-08-30T12:48:05.227Z,30.50
2017-08-30T12:50:35.446Z,30.96
2017-08-30T12:53:05.531Z,31.16
2017-08-30T12:55:35.579Z,31.16
2017-08-30T12:58:05.287Z,31.16
2017-08-30T13:00:36.013Z,31.16
2017-08-30T13:03:05.826Z,31.09
2017-08-30T13:05:35.628Z,31.19
2017-08-30T13:08:05.543Z,31.12
2017-08-30T13:10:35.287Z,31.13
2017-08-30T13:13:05.172Z,31.14
2017-08-30T13:15:35.145Z,31.24
2017-08-30T13:18:05.196Z,31.25
2017-08-30T13:20:35.865Z,31.27
2017-08-30T13:23:06.659Z,31.19
2017-08-30T13:25:38.149Z,31.29
2017-08-30T13:28:08.075Z,31.30
2017-08-30T13:30:38.309Z,31.32
2017-08-30T13:33:08.769Z,31.25
2017-08-30T13:35:38.722Z,31.31
2017-08-30T13:38:09.104Z,31.26
2017-08-30T13:40:41.496Z,31.36
2017-08-30T13:43:12.148Z,31.41
2017-08-30T13:45:46.337Z,31.43
2017-08-30T13:48:17.861Z,31.43
2017-08-30T13:50:52.876Z,31.28
2017-08-30T13:53:28.521Z,31.44
2017-08-30T13:56:01.820Z,31.44
2017-08-30T13:59:02.968Z,30.96
2017-08-30T14:02:04.790Z,31.21
2017-08-30T14:04:35.582Z,31.54
2017-08-30T14:07:07.161Z,31.49
2017-08-30T14:09:38.340Z,31.45
2017-08-30T14:12:08.975Z,31.36
2017-08-30T14:14:38.999Z,31.43
2017-08-30T14:17:11.003Z,31.43
2017-08-30T14:19:41.475Z,31.26
2017-08-30T14:22:11.691Z,31.34
2017-08-30T14:24:41.895Z,31.33
2017-08-30T14:27:12.073Z,31.33
2017-08-30T14:29:42.487Z,31.42
2017-08-30T14:32:12.192Z,31.08
2017-08-30T14:34:42.573Z,31.42
2017-08-30T14:37:14.130Z,31.25
2017-08-30T14:39:48.334Z,31.29
2017-08-30T14:42:18.701Z,31.46
2017-08-30T14:44:50.999Z,31.32
2017-08-30T14:47:28.361Z,31.40
2017-08-30T14:50:02.099Z,31.53
2017-08-30T14:52:32.828Z,31.59
2017-08-30T14:55:02.854Z,31.54
2017-08-30T14:57:33.537Z,31.51
2017-08-30T15:00:04.382Z,31.49
2017-08-30T15:02:34.947Z,31.38
2017-08-30T15:05:38.201Z,30.85
2017-08-30T15:08:12.209Z,31.49
2017-08-30T15:10:42.234Z,31.55
2017-08-30T15:13:12.259Z,31.43
2017-08-30T15:15:42.213Z,31.47
2017-08-30T15:18:12.457Z,31.44
2017-08-30T15:20:42.936Z,31.35
2017-08-30T15:23:14.846Z,31.42
2017-08-30T15:25:47.284Z,31.32
2017-08-30T15:28:17.232Z,31.32
2017-08-30T15:30:49.100Z,31.40
2017-08-30T15:33:19.352Z,31.39
2017-08-30T15:35:49.991Z,31.40
2017-08-30T15:38:19.905Z,31.39
2017-08-30T15:40:49.931Z,30.95
2017-08-30T15:43:20.125Z,30.88
2017-08-30T15:45:49.980Z,31.28
2017-08-30T15:48:20.319Z,31.37
2017-08-30T15:50:50.252Z,31.28
2017-08-30T15:53:20.734Z,31.36
2017-08-30T15:55:51.343Z,31.36
2017-08-30T15:58:21.700Z,31.28
2017-08-30T16:00:51.892Z,31.27
2017-08-30T16:03:22.068Z,31.36
2017-08-30T16:05:56.011Z,31.36
2017-08-30T16:08:26.211Z,31.35
2017-08-30T16:10:56.145Z,31.36
2017-08-30T16:13:26.046Z,31.28
2017-08-30T16:15:56.110Z,31.37
2017-08-30T16:18:26.120Z,31.38
2017-08-30T16:20:58.661Z,31.21
2017-08-30T16:23:29.430Z,31.31
2017-08-30T16:26:00.081Z,31.39
2017-08-30T16:28:30.484Z,31.39
2017-08-30T16:31:04.941Z,31.41
2017-08-30T16:33:51.018Z,31.31
2017-08-30T16:36:31.697Z,31.13
2017-08-30T16:39:04.143Z,31.60
2017-08-30T16:41:36.248Z,31.56
2017-08-30T16:44:07.740Z,31.43
2017-08-30T16:46:38.206Z,31.48
2017-08-30T16:49:20.802Z,31.46
2017-08-30T16:51:51.285Z,31.38
2017-08-30T16:54:21.675Z,31.44
2017-08-30T16:56:51.682Z,31.26
2017-08-30T16:59:22.401Z,31.43
2017-08-30T17:01:52.726Z,31.42
2017-08-30T17:04:22.868Z,31.34
2017-08-30T17:06:52.762Z,31.43
2017-08-30T17:09:23.715Z,31.43
2017-08-30T17:11:56.477Z,31.35
2017-08-30T17:14:26.902Z,31.35
2017-08-30T17:16:57.164Z,31.34
2017-08-30T17:19:27.802Z,31.44
2017-08-30T17:21:59.062Z,31.39
2017-08-30T17:25:30.171Z,31.17
2017-08-30T17:28:02.858Z,31.17
2017-08-30T17:30:35.816Z,31.53
2017-08-30T17:33:09.420Z,31.01
2017-08-30T17:35:44.074Z,31.36
2017-08-30T17:38:18.177Z,31.51
2017-08-30T17:40:51.282Z,31.33
2017-08-30T17:43:21.456Z,31.39
2017-08-30T17:45:53.167Z,31.47
2017-08-30T17:48:24.767Z,31.46
2017-08-30T17:50:55.989Z,31.46
2017-08-30T17:53:27.124Z,31.19
2017-08-30T17:55:59.466Z,31.44
2017-08-30T17:58:31.654Z,31.44
2017-08-30T18:01:06.241Z,31.44
2017-08-30T18:03:37.358Z,31.45
2017-08-30T18:06:28.997Z,31.14
2017-08-30T18:08:59.323Z,31.51
2017-08-30T18:11:30.262Z,31.50
2017-08-30T18:14:29.701Z,31.10
2017-08-30T18:17:03.970Z,31.38
2017-08-30T18:19:36.223Z,31.52
2017-08-30T18:22:16.193Z,31.16
2017-08-30T18:25:15.915Z,31.54
2017-08-30T18:31:25.569Z,31.33
2017-08-30T18:34:08.109Z,31.66
2017-08-30T18:36:39.260Z,31.50
2017-08-30T18:39:09.645Z,31.55
2017-08-30T18:41:41.546Z,31.38
2017-08-30T18:44:13.695Z,31.52
2017-08-30T18:46:44.570Z,31.49
2017-08-30T18:49:41.894Z,31.39
2017-08-30T18:52:12.410Z,31.46
2017-08-30T18:54:42.203Z,31.35
2017-08-30T18:57:12.725Z,31.27
2017-08-30T19:00:08.315Z,30.95
2017-08-30T19:02:39.165Z,31.46
2017-08-30T19:05:11.465Z,31.37
2017-08-30T19:07:50.504Z,31.36
2017-08-30T19:10:22.021Z,31.43
2017-08-30T19:13:20.204Z,31.04
2017-08-30T19:16:31.227Z,31.07
2017-08-30T19:19:01.777Z,31.44
2017-08-30T19:21:32.756Z,31.32
2017-08-30T19:24:04.345Z,31.51
2017-08-30T19:26:35.140Z,31.49
2017-08-30T19:29:07.169Z,31.48
2017-08-30T19:31:37.871Z,31.47
2017-08-30T19:34:07.618Z,31.47
2017-08-30T19:37:10.110Z,31.18
2017-08-30T19:39:51.780Z,31.62
2017-08-30T19:42:30.670Z,31.60
2017-08-30T19:45:03.103Z,31.62
2017-08-30T19:47:35.217Z,31.59
2017-08-30T19:50:36.937Z,31.61
2017-08-30T19:53:12.156Z,31.39
2017-08-30T19:55:50.912Z,31.37
2017-08-30T19:58:21.748Z,31.60
2017-08-30T20:00:52.244Z,31.38
2017-08-30T20:03:22.583Z,31.51
2017-08-30T20:05:52.519Z,31.23
2017-08-30T20:08:22.950Z,31.47
2017-08-30T20:10:53.046Z,31.46
2017-08-30T20:13:22.937Z,31.44
2017-08-30T20:15:53.184Z,31.43
2017-08-30T20:18:39.500Z,31.01
2017-08-30T20:21:33.986Z,30.98
2017-08-30T20:24:20.274Z,31.45
2017-08-30T20:27:14.632Z,31.06
2017-08-30T20:30:28.208Z,31.50
2017-08-30T20:33:32.831Z,31.28
2017-08-30T20:36:32.450Z,31.29
2017-08-30T20:39:42.191Z,31.18
2017-08-30T20:42:16.591Z,31.41
2017-08-30T20:45:21.829Z,31.16
2017-08-30T20:48:00.665Z,31.41
2017-08-30T20:50:49.260Z,31.17
2017-08-30T20:53:31.702Z,31.39
2017-08-30T20:56:04.207Z,31.55
2017-08-30T20:58:34.196Z,31.57
2017-08-30T21:01:04.124Z,31.52
2017-08-30T21:03:34.381Z,31.47
2017-08-30T21:06:04.742Z,31.45
2017-08-30T21:08:34.764Z,31.28
2017-08-30T21:11:04.946Z,31.42
2017-08-30T21:13:34.747Z,31.40
2017-08-30T21:16:05.174Z,31.38
2017-08-30T21:18:35.632Z,31.36
2017-08-30T21:21:05.437Z,31.35
2017-08-30T21:23:35.313Z,31.34
2017-08-30T21:26:06.393Z,31.32
2017-08-30T21:28:36.632Z,31.32
2017-08-30T21:31:06.681Z,31.25
2017-08-30T21:33:36.630Z,31.32
2017-08-30T21:36:06.523Z,31.32
2017-08-30T21:38:36.629Z,31.31
2017-08-30T21:41:06.845Z,31.32
2017-08-30T21:43:36.506Z,31.31
2017-08-30T21:46:06.527Z,31.32
2017-08-30T21:48:36.397Z,31.30
2017-08-30T21:51:06.736Z,31.32
2017-08-30T21:53:37.577Z,31.24
2017-08-30T21:56:07.960Z,31.35
2017-08-30T21:58:37.602Z,31.35
2017-08-30T22:01:08.121Z,31.34
2017-08-30T22:03:37.916Z,31.33
2017-08-30T22:06:09.139Z,31.32
2017-08-30T22:08:39.708Z,31.31
2017-08-30T22:11:09.685Z,31.29
2017-08-30T22:13:39.707Z,31.27
2017-08-30T22:16:10.189Z,31.27
2017-08-30T22:18:40.151Z,31.25
2017-08-30T22:21:10.565Z,31.24
2017-08-30T22:23:42.328Z,31.21
2017-08-30T22:26:12.717Z,31.18
2017-08-30T22:28:44.407Z,31.19
2017-08-30T22:31:14.558Z,31.11
2017-08-30T22:33:46.177Z,31.18
2017-08-30T22:36:19.372Z,31.10
2017-08-30T22:38:49.451Z,30.94
2017-08-30T22:41:19.387Z,31.17
2017-08-30T22:43:49.414Z,31.08
2017-08-30T22:46:19.295Z,31.06
2017-08-30T22:48:49.255Z,30.73
2017-08-30T22:51:19.237Z,31.14
2017-08-30T22:53:52.179Z,30.57
2017-08-30T22:56:22.763Z,31.07
2017-08-30T22:58:52.898Z,31.13
2017-08-30T23:01:24.073Z,31.11
2017-08-30T23:03:53.864Z,31.10
2017-08-30T23:06:24.143Z,31.09
2017-08-30T23:08:54.025Z,31.00
2017-08-30T23:11:24.488Z,31.08
2017-08-30T23:13:54.626Z,31.08
2017-08-30T23:16:24.585Z,31.08
2017-08-30T23:18:55.409Z,31.09
2017-08-30T23:21:25.650Z,31.10
2017-08-30T23:23:56.265Z,31.10
2017-08-30T23:26:26.532Z,31.11
2017-08-30T23:28:56.528Z,31.11
2017-08-30T23:31:27.141Z,31.10
2017-08-30T23:33:57.371Z,31.10
2017-08-30T23:36:27.883Z,31.11
2017-08-30T23:38:57.818Z,31.09
2017-08-30T23:41:27.913Z,31.11
2017-08-30T23:43:58.410Z,31.12
2017-08-30T23:46:28.088Z,31.12
2017-08-30T23:48:57.863Z,31.14
2017-08-30T23:51:27.955Z,31.15
2017-08-30T23:53:59.178Z,31.15
2017-08-30T23:56:28.867Z,31.08
2017-08-30T23:58:59.293Z,30.97
